Portada
METAR-TAF:

METAR-TAF

Aeroports :

Krasnoiarsk, Rússia

latitud: 56-10-18N, longitud: 092-29-36E, altitud: 287 m

Observació

L'informe es va fer fa 26 minuts, a les 03:30 UTC
Vent 12 kt del Oest
Temperatura -23°C
Humitat 70%
Pressió 1023 hPa
Visibilitat: 8000 m
neu

METAR: UNKL 210330Z 26006MPS 8000 -SN NSC M23/M27 Q1023 R29/420250 NOSIG RMK QFE742

Hora: 10:56 (03:56 UTC)

Pronòstic

L'informe es va fer fa 2 hores i 0 minuts, a les 01:56 UTC
Pronòstic vàlid del 21 a les 03 UTC al 22 a les 03 UTC
Vent 16 kt del Oest amb ràfegues de 31 kt
Visibilitat: 3100 m
Núvols disperses a una alçada de 1200 ft
neu, torb alta de neu
Temporalment
l' 21 a les 03 UTC al 21 a les 06 UTC
Visibilitat: 1000 m
neu, torb alta de neu
A partir de les 21 a les 1200 UTC
Vent 6 kt del Oest/Sud-Oest amb ràfegues de 19 kt
Visibilitat: 4000 m
Núvols disperses a una alçada de 2000 ft
neu

TAF: UNKL 210156Z 2103/2203 26008G16MPS 3100 -SN BLSN SCT012 TEMPO 2103/2106 1000 SN BLSN FM211200 24003G10MPS 4000 -SN SCT020

Observacions i pronòstics meteorològics de més de 4000 aeroports (METAR i TAF).

Les estacions disponibles són els punts grocs i vermells al mapa.

Posi el ratolí al punt desitjat per veure el nom de l'estació.

Feu clic per veure les observacions i els pronòstics meteorològics.

Per canviar el mapa: feu clic els botons verds amb una creu de color negre per apropar; al botó verd amb un guió per allunyar la imatge; o en les fletxes verdes per a mapes adjacents.


METAR-TAF: